createdAt,value
2018-09-04T00:01:37.208Z,4.90
2018-09-04T00:04:04.258Z,4.43
2018-09-04T00:06:31.314Z,4.85
2018-09-04T00:08:59.072Z,4.32
2018-09-04T00:11:26.121Z,4.75
2018-09-04T00:13:53.163Z,4.60
2018-09-04T00:16:20.423Z,4.65
2018-09-04T00:18:47.465Z,4.18
2018-09-04T00:21:14.515Z,4.60
2018-09-04T00:23:41.569Z,4.10
2018-09-04T00:26:08.611Z,4.55
2018-09-04T00:28:35.661Z,4.30
2018-09-04T00:31:02.715Z,4.30
2018-09-04T00:33:29.758Z,4.15
2018-09-04T00:35:56.806Z,4.12
2018-09-04T00:38:24.680Z,4.53
2018-09-04T00:40:51.721Z,4.05
2018-09-04T00:43:18.776Z,4.25
2018-09-04T00:45:45.820Z,4.78
2018-09-04T00:48:12.970Z,4.53
2018-09-04T00:50:40.121Z,4.20
2018-09-04T00:53:07.170Z,4.30
2018-09-04T00:55:34.224Z,4.55
2018-09-04T00:58:01.269Z,4.03
2018-09-04T01:00:28.391Z,4.07
2018-09-04T01:02:55.466Z,4.75
2018-09-04T01:05:22.618Z,3.97
2018-09-04T01:07:49.671Z,4.43
2018-09-04T01:10:16.715Z,4.10
2018-09-04T01:12:43.764Z,4.30
2018-09-04T01:15:10.817Z,4.93
2018-09-04T01:17:37.863Z,4.05
2018-09-04T01:20:04.910Z,4.47
2018-09-04T01:22:31.964Z,4.20
2018-09-04T01:24:59.008Z,4.22
2018-09-04T01:27:26.024Z,4.07
2018-09-04T01:29:53.112Z,4.15
2018-09-04T01:32:20.261Z,4.72
2018-09-04T01:34:47.302Z,4.22
2018-09-04T01:37:14.352Z,4.55
2018-09-04T01:39:41.406Z,4.50
2018-09-04T01:42:08.556Z,4.40
2018-09-04T01:44:35.574Z,4.40
2018-09-04T01:47:02.649Z,4.47
2018-09-04T01:49:30.518Z,4.22
2018-09-04T01:51:59.409Z,4.60
2018-09-04T01:54:26.560Z,4.40
2018-09-04T01:56:53.613Z,4.20
2018-09-04T01:59:20.657Z,4.20
2018-09-04T02:01:47.782Z,4.62
2018-09-04T02:04:14.859Z,3.83
2018-09-04T02:06:41.911Z,4.12
2018-09-04T02:09:08.953Z,4.35
2018-09-04T02:11:36.001Z,4.47
2018-09-04T02:14:03.055Z,4.47
2018-09-04T02:16:48.381Z,4.75
2018-09-04T02:19:15.483Z,4.25
2018-09-04T02:21:42.636Z,4.05
2018-09-04T02:24:11.321Z,4.30
2018-09-04T02:26:38.335Z,4.60
2018-09-04T02:29:05.993Z,4.80
2018-09-04T02:31:33.282Z,4.62
2018-09-04T02:34:00.433Z,4.57
2018-09-04T02:36:27.998Z,4.78
2018-09-04T02:38:55.151Z,5.40
2018-09-04T02:41:22.195Z,4.40
2018-09-04T02:43:49.243Z,4.90
2018-09-04T02:46:16.295Z,4.78
2018-09-04T02:48:43.338Z,4.80
2018-09-04T02:51:11.106Z,4.35
2018-09-04T02:53:38.163Z,4.77
2018-09-04T02:56:05.208Z,4.53
2018-09-04T02:58:33.179Z,4.32
2018-09-04T03:01:00.222Z,4.35
2018-09-04T03:03:27.283Z,4.10
2018-09-04T03:05:54.428Z,4.97
2018-09-04T03:08:21.469Z,5.20
2018-09-04T03:10:48.518Z,5.20
2018-09-04T03:13:15.608Z,4.78
2018-09-04T03:15:42.724Z,4.85
2018-09-04T03:18:09.764Z,5.55
2018-09-04T03:20:37.602Z,4.82
2018-09-04T03:23:04.682Z,5.05
2018-09-04T03:25:31.730Z,5.10
2018-09-04T03:27:58.786Z,5.93
2018-09-04T03:30:25.830Z,5.32
2018-09-04T03:32:52.878Z,5.30
2018-09-04T03:35:19.929Z,5.50
2018-09-04T03:37:46.978Z,5.68
2018-09-04T03:40:14.738Z,5.05
2018-09-04T03:42:41.790Z,4.75
2018-09-04T03:45:09.861Z,4.82
2018-09-04T03:47:37.825Z,4.70
2018-09-04T03:50:04.880Z,4.95
2018-09-04T03:52:31.929Z,4.68
2018-09-04T03:54:58.982Z,5.30
2018-09-04T03:57:26.027Z,5.65
2018-09-04T03:59:53.176Z,5.70
2018-09-04T04:02:37.238Z,5.57
2018-09-04T04:05:18.225Z,5.30
2018-09-04T04:10:33.805Z,5.12
2018-09-04T04:13:00.955Z,4.85
2018-09-04T04:15:28.000Z,4.87
2018-09-04T04:17:55.046Z,4.87
2018-09-04T04:20:22.102Z,5.33
2018-09-04T04:22:49.145Z,4.80
2018-09-04T04:25:16.808Z,4.55
2018-09-04T04:27:43.862Z,6.15
2018-09-04T04:30:10.905Z,4.30
2018-09-04T04:32:38.878Z,4.55
2018-09-04T04:35:06.029Z,4.90
2018-09-04T04:37:33.043Z,4.80
2018-09-04T04:40:01.094Z,5.18
2018-09-04T04:42:28.196Z,5.03
2018-09-04T04:44:56.271Z,5.35
2018-09-04T04:47:23.318Z,5.30
2018-09-04T04:49:50.372Z,4.80
2018-09-04T04:52:17.416Z,5.23
2018-09-04T04:54:44.464Z,4.60
2018-09-04T04:57:11.519Z,4.73
2018-09-04T04:59:38.529Z,5.30
2018-09-04T05:02:05.612Z,4.80
2018-09-04T05:04:32.663Z,5.13
2018-09-04T05:07:00.323Z,5.00
2018-09-04T05:09:29.519Z,4.83
2018-09-04T05:11:57.570Z,5.13
2018-09-04T05:14:24.647Z,4.70
2018-09-04T05:16:52.554Z,4.63
2018-09-04T05:19:19.562Z,5.43
2018-09-04T05:21:47.702Z,4.93
2018-09-04T05:24:14.786Z,4.53
2018-09-04T05:26:41.802Z,5.00
2018-09-04T05:29:08.948Z,4.97
2018-09-04T05:31:36.135Z,4.70
2018-09-04T05:34:04.006Z,4.73
2018-09-04T05:36:32.122Z,5.00
2018-09-04T05:39:18.173Z,4.97
2018-09-04T05:41:45.218Z,5.70
2018-09-04T05:44:12.885Z,4.93
2018-09-04T05:46:40.440Z,5.80
2018-09-04T05:49:07.495Z,5.30
2018-09-04T05:51:34.541Z,5.60
2018-09-04T05:54:01.590Z,5.67
2018-09-04T05:56:28.738Z,5.70
2018-09-04T05:58:55.891Z,6.50
2018-09-04T06:01:22.944Z,6.47
2018-09-04T06:03:50.293Z,6.33
2018-09-04T06:06:17.341Z,6.47
2018-09-04T06:08:44.397Z,7.53
2018-09-04T06:11:11.437Z,6.77
2018-09-04T06:13:38.510Z,6.40
2018-09-04T06:16:05.540Z,7.50
2018-09-04T06:18:32.582Z,6.07
2018-09-04T06:20:59.633Z,5.73
2018-09-04T06:23:26.783Z,5.40
2018-09-04T06:25:54.242Z,5.13
2018-09-04T06:28:49.523Z,5.43
2018-09-04T06:31:16.603Z,5.40
2018-09-04T06:33:43.650Z,5.37
2018-09-04T06:36:10.716Z,5.57
2018-09-04T06:38:37.747Z,5.43
2018-09-04T06:41:04.898Z,5.10
2018-09-04T06:43:31.946Z,5.03
2018-09-04T06:45:59.001Z,4.77
2018-09-04T06:48:26.044Z,5.70
2018-09-04T06:50:53.094Z,4.68
2018-09-04T06:53:20.147Z,5.47
2018-09-04T06:55:47.298Z,4.40
2018-09-04T06:58:14.342Z,4.67
2018-09-04T07:00:41.390Z,4.70
2018-09-04T07:03:08.541Z,5.15
2018-09-04T07:05:35.599Z,4.57
2018-09-04T07:08:02.638Z,4.65
2018-09-04T07:10:29.688Z,4.70
2018-09-04T07:12:56.836Z,4.65
2018-09-04T07:15:23.892Z,4.25
2018-09-04T07:17:51.832Z,4.47
2018-09-04T07:20:18.905Z,4.70
2018-09-04T07:22:46.062Z,4.68
2018-09-04T07:25:34.050Z,5.22
2018-09-04T07:28:01.043Z,4.68
2018-09-04T07:30:28.811Z,4.80
2018-09-04T07:32:55.856Z,5.10
2018-09-04T07:35:23.009Z,4.53
2018-09-04T07:37:50.062Z,4.43
2018-09-04T07:40:17.106Z,4.97
2018-09-04T07:42:44.155Z,5.10
2018-09-04T07:45:11.208Z,4.85
2018-09-04T07:47:38.251Z,5.12
2018-09-04T07:50:05.402Z,5.47
2018-09-04T07:52:32.451Z,5.32
2018-09-04T07:54:59.505Z,5.70
2018-09-04T07:57:26.753Z,4.62
2018-09-04T07:59:53.817Z,5.00
2018-09-04T08:02:20.858Z,5.03
2018-09-04T08:04:47.898Z,5.03
2018-09-04T08:07:15.152Z,4.60
2018-09-04T08:09:42.411Z,4.53
2018-09-04T08:12:29.915Z,5.05
2018-09-04T08:15:12.928Z,4.90
2018-09-04T08:17:39.991Z,4.97
2018-09-04T08:20:07.017Z,4.93
2018-09-04T08:22:35.129Z,5.60
2018-09-04T08:25:02.182Z,5.00
2018-09-04T08:27:29.225Z,4.72
2018-09-04T08:29:56.273Z,4.90
2018-09-04T08:32:23.426Z,4.68
2018-09-04T08:34:50.478Z,4.70
2018-09-04T08:37:17.521Z,4.87
2018-09-04T08:39:44.674Z,4.80
2018-09-04T08:42:11.722Z,4.82
2018-09-04T08:44:38.878Z,4.47
2018-09-04T08:47:05.929Z,4.72
2018-09-04T08:49:32.972Z,4.60
2018-09-04T08:52:00.020Z,4.28
2018-09-04T08:54:27.173Z,5.12
2018-09-04T08:56:54.224Z,4.45
2018-09-04T08:59:21.268Z,4.85
2018-09-04T09:01:48.529Z,3.62
2018-09-04T09:04:15.569Z,4.15
2018-09-04T09:06:42.719Z,4.72
2018-09-04T09:09:09.979Z,4.80
2018-09-04T09:11:37.022Z,5.68
2018-09-04T09:14:04.071Z,5.20
2018-09-04T09:16:31.126Z,4.87
2018-09-04T09:18:58.273Z,4.40
2018-09-04T09:21:26.348Z,4.75
2018-09-04T09:23:54.929Z,4.70
2018-09-04T09:26:22.079Z,5.12
2018-09-04T09:28:49.127Z,4.32
2018-09-04T09:31:16.380Z,4.85
2018-09-04T09:33:43.429Z,4.55
2018-09-04T09:36:10.547Z,5.03
2018-09-04T09:38:37.634Z,4.40
2018-09-04T09:41:04.883Z,4.18
2018-09-04T09:43:32.034Z,4.05
2018-09-04T09:45:59.290Z,4.68
2018-09-04T09:48:47.209Z,3.85
2018-09-04T09:51:14.785Z,4.30
2018-09-04T09:53:41.987Z,4.82
2018-09-04T09:56:08.932Z,4.55
2018-09-04T09:58:36.039Z,4.60
2018-09-04T10:01:03.306Z,4.65
2018-09-04T10:03:30.438Z,4.22
2018-09-04T10:05:57.590Z,4.80
2018-09-04T10:08:24.848Z,4.68
2018-09-04T10:10:51.891Z,4.00
2018-09-04T10:13:18.947Z,4.45
2018-09-04T10:15:46.883Z,4.12
2018-09-04T10:18:13.959Z,4.30
2018-09-04T10:20:41.214Z,4.45
2018-09-04T10:23:08.875Z,4.57
2018-09-04T10:25:36.026Z,4.75
2018-09-04T10:28:03.178Z,4.65
2018-09-04T10:30:30.230Z,4.53
2018-09-04T10:32:57.382Z,4.50
2018-09-04T10:35:24.630Z,4.22
2018-09-04T10:37:51.692Z,4.35
2018-09-04T10:40:33.578Z,4.30
2018-09-04T10:43:00.625Z,4.28
2018-09-04T10:45:27.885Z,4.50
2018-09-04T10:47:54.926Z,5.00
2018-09-04T10:50:21.974Z,4.97
2018-09-04T10:52:49.030Z,4.28
2018-09-04T10:55:16.277Z,4.68
2018-09-04T10:57:43.513Z,4.68
2018-09-04T11:00:11.095Z,4.30
2018-09-04T11:02:38.140Z,4.40
2018-09-04T11:05:05.399Z,4.50
2018-09-04T11:07:32.748Z,5.07
2018-09-04T11:10:00.246Z,4.50
2018-09-04T11:12:28.371Z,5.22
2018-09-04T11:14:55.636Z,4.82
2018-09-04T11:17:22.996Z,5.53
2018-09-04T11:19:50.147Z,4.35
2018-09-04T11:22:17.191Z,4.95
2018-09-04T11:24:45.162Z,4.45
2018-09-04T11:27:13.853Z,4.90
2018-09-04T11:29:40.904Z,4.35
2018-09-04T11:32:08.763Z,4.85
2018-09-04T11:34:35.779Z,5.25
2018-09-04T11:37:02.969Z,5.10
2018-09-04T11:39:30.738Z,5.15
2018-09-04T11:41:57.783Z,5.37
2018-09-04T11:44:24.931Z,4.72
2018-09-04T11:46:52.716Z,4.20
2018-09-04T11:49:19.954Z,4.45
2018-09-04T11:51:52.237Z,4.47
2018-09-04T11:54:19.268Z,4.30
2018-09-04T11:56:46.421Z,4.25
2018-09-04T11:59:13.569Z,4.75
2018-09-04T12:01:40.824Z,4.47
2018-09-04T12:04:08.082Z,5.03
2018-09-04T12:06:35.240Z,4.22
2018-09-04T12:09:02.276Z,4.20
2018-09-04T12:11:29.290Z,4.65
2018-09-04T12:13:56.477Z,5.20
2018-09-04T12:16:23.627Z,4.50
2018-09-04T12:18:50.831Z,4.22
2018-09-04T12:21:18.498Z,4.50
2018-09-04T12:23:45.695Z,4.30
2018-09-04T12:26:12.747Z,4.35
2018-09-04T12:28:39.899Z,3.85
2018-09-04T12:31:07.149Z,3.12
2018-09-04T12:33:34.465Z,3.55
2018-09-04T12:36:03.463Z,3.28
2018-09-04T12:38:30.545Z,3.78
2018-09-04T12:40:58.590Z,3.53
2018-09-04T12:43:25.630Z,3.20
2018-09-04T12:45:52.720Z,3.17
2018-09-04T12:48:20.835Z,3.28
2018-09-04T12:50:48.144Z,3.22
2018-09-04T12:56:00.879Z,3.20
2018-09-04T12:58:29.059Z,3.40
2018-09-04T13:00:57.846Z,3.62
2018-09-04T13:03:24.993Z,3.90
2018-09-04T13:05:52.246Z,3.30
2018-09-04T13:08:19.506Z,3.20
2018-09-04T13:13:32.647Z,3.28
2018-09-04T13:15:59.795Z,3.42
2018-09-04T13:18:26.945Z,3.22
2018-09-04T13:20:54.615Z,3.50
2018-09-04T13:23:21.764Z,3.50
2018-09-04T13:25:49.016Z,3.53
2018-09-04T13:28:16.681Z,3.72
2018-09-04T13:30:43.831Z,3.67
2018-09-04T13:33:11.823Z,3.90
2018-09-04T13:35:38.925Z,3.85
2018-09-04T13:38:05.997Z,4.20
2018-09-04T13:40:33.049Z,3.65
2018-09-04T13:43:00.096Z,3.87
2018-09-04T13:45:27.451Z,4.40
2018-09-04T13:51:00.660Z,5.30
2018-09-04T13:53:32.181Z,4.00
2018-09-04T13:56:00.291Z,4.90
2018-09-04T13:58:27.548Z,4.68
2018-09-04T14:00:55.514Z,4.62
2018-09-04T14:03:22.568Z,4.70
2018-09-04T14:05:49.919Z,4.90
2018-09-04T14:08:16.967Z,4.75
2018-09-04T14:10:44.021Z,5.70
2018-09-04T14:13:11.065Z,4.72
2018-09-04T14:15:38.421Z,4.68
2018-09-04T14:18:05.479Z,4.55
2018-09-04T14:20:32.520Z,4.60
2018-09-04T14:22:59.565Z,4.80
2018-09-04T14:25:26.650Z,4.62
2018-09-04T14:27:53.769Z,4.75
2018-09-04T14:30:20.940Z,4.65
2018-09-04T14:32:48.446Z,4.12
2018-09-04T14:35:15.531Z,5.00
2018-09-04T14:37:42.682Z,4.32
2018-09-04T14:40:11.133Z,4.80
2018-09-04T14:42:38.414Z,4.90
2018-09-04T14:45:05.671Z,4.97
2018-09-04T14:47:33.635Z,4.90
2018-09-04T14:50:00.992Z,4.40
2018-09-04T14:52:28.828Z,4.93
2018-09-04T14:54:56.286Z,5.20
2018-09-04T14:57:23.365Z,4.70
2018-09-04T14:59:50.522Z,5.20
2018-09-04T15:02:17.574Z,4.72
2018-09-04T15:04:44.818Z,4.70
2018-09-04T15:07:11.988Z,5.07
2018-09-04T15:12:29.392Z,5.40
2018-09-04T15:14:56.770Z,4.65
2018-09-04T15:17:23.823Z,4.72
2018-09-04T15:19:50.869Z,4.97
2018-09-04T15:22:17.916Z,4.75
2018-09-04T15:30:50.501Z,5.03
2018-09-04T15:33:35.393Z,4.90
2018-09-04T15:36:02.555Z,5.32
2018-09-04T15:38:29.707Z,4.93
2018-09-04T15:40:56.756Z,5.35
2018-09-04T15:43:23.808Z,4.55
2018-09-04T15:45:50.889Z,5.15
2018-09-04T15:48:18.210Z,4.90
2018-09-04T15:50:46.184Z,4.68
2018-09-04T15:53:14.661Z,4.60
2018-09-04T15:55:41.811Z,4.50
2018-09-04T15:58:08.962Z,4.47
2018-09-04T16:00:36.803Z,4.47
2018-09-04T16:03:22.926Z,4.45
2018-09-04T16:05:52.831Z,3.95
2018-09-04T16:08:24.504Z,4.20
2018-09-04T16:10:51.546Z,4.32
2018-09-04T16:13:19.826Z,3.90
2018-09-04T16:15:46.975Z,3.87
2018-09-04T16:18:15.675Z,3.67
2018-09-04T16:20:42.716Z,4.18
2018-09-04T16:23:10.048Z,4.47
2018-09-04T16:25:38.619Z,4.37
2018-09-04T16:28:05.807Z,4.20
2018-09-04T16:30:33.365Z,4.25
2018-09-04T16:33:00.930Z,4.10
2018-09-04T16:35:27.976Z,3.97
2018-09-04T16:37:55.231Z,4.22
2018-09-04T16:40:23.979Z,4.07
2018-09-04T16:42:51.270Z,4.22
2018-09-04T16:45:18.419Z,4.47
2018-09-04T16:47:46.492Z,4.57
2018-09-04T16:50:13.848Z,4.28
2018-09-04T16:52:41.166Z,4.65
2018-09-04T16:55:08.457Z,5.12
2018-09-04T16:57:35.512Z,4.18
2018-09-04T17:00:03.543Z,4.45
2018-09-04T17:02:31.106Z,4.90
2018-09-04T17:04:58.307Z,4.53
2018-09-04T17:07:47.307Z,4.65
2018-09-04T17:10:16.306Z,4.12
2018-09-04T17:12:44.609Z,5.15
2018-09-04T17:15:12.193Z,4.97
2018-09-04T17:17:39.952Z,4.62
2018-09-04T17:20:07.214Z,4.28
2018-09-04T17:22:34.255Z,4.78
2018-09-04T17:25:01.303Z,4.87
2018-09-04T17:27:28.430Z,4.50
2018-09-04T17:29:56.444Z,4.53
2018-09-04T17:32:26.653Z,4.65
2018-09-04T17:34:53.805Z,4.90
2018-09-04T17:37:20.957Z,5.18
2018-09-04T17:39:48.925Z,4.65
2018-09-04T17:42:16.287Z,5.18
2018-09-04T17:44:43.427Z,4.93
2018-09-04T17:47:10.680Z,5.28
2018-09-04T17:49:37.831Z,4.75
2018-09-04T17:52:06.011Z,4.50
2018-09-04T17:54:42.086Z,4.93
2018-09-04T17:57:09.403Z,5.10
2018-09-04T17:59:55.589Z,5.03
2018-09-04T18:02:41.302Z,5.10
2018-09-04T18:05:27.345Z,5.35
2018-09-04T18:07:55.063Z,5.22
2018-09-04T18:10:22.521Z,6.05
2018-09-04T18:12:50.559Z,5.28
2018-09-04T18:15:18.323Z,5.32
2018-09-04T18:17:47.421Z,5.60
2018-09-04T18:20:15.836Z,5.32
2018-09-04T18:22:43.601Z,4.72
2018-09-04T18:25:11.061Z,4.55
2018-09-04T18:27:40.451Z,4.75
2018-09-04T18:30:08.234Z,4.65
2018-09-04T18:32:36.781Z,5.37
2018-09-04T18:35:13.556Z,5.03
2018-09-04T18:37:42.759Z,4.53
2018-09-04T18:40:11.276Z,4.85
2018-09-04T18:42:39.547Z,5.50
2018-09-04T18:45:30.939Z,5.30
2018-09-04T18:48:00.566Z,5.40
2018-09-04T18:50:29.131Z,5.35
2018-09-04T18:53:01.574Z,5.75
2018-09-04T18:55:29.512Z,5.87
2018-09-04T18:57:57.966Z,5.35
2018-09-04T19:00:26.471Z,5.87
2018-09-04T19:02:55.633Z,5.28
2018-09-04T19:05:23.846Z,5.15
2018-09-04T19:07:54.154Z,5.97
2018-09-04T19:10:21.730Z,5.97
2018-09-04T19:12:50.187Z,4.97
2018-09-04T19:15:19.783Z,5.68
2018-09-04T19:17:49.005Z,6.45
2018-09-04T19:20:23.377Z,5.45
2018-09-04T19:22:52.922Z,6.35
2018-09-04T19:25:22.253Z,7.05
2018-09-04T19:27:53.263Z,6.87
2018-09-04T19:30:21.267Z,5.15
2018-09-04T19:32:49.713Z,6.35
2018-09-04T19:35:19.117Z,7.28
2018-09-04T19:37:48.233Z,6.93
2018-09-04T19:40:37.330Z,6.62
2018-09-04T19:43:26.818Z,6.85
2018-09-04T19:45:55.449Z,6.18
2018-09-04T19:48:23.135Z,6.62
2018-09-04T19:50:53.852Z,6.03
2018-09-04T19:53:21.430Z,7.20
2018-09-04T19:55:48.480Z,5.78
2018-09-04T19:58:17.268Z,6.75
2018-09-04T20:00:45.685Z,6.62
2018-09-04T20:03:13.311Z,7.85
2018-09-04T20:05:41.691Z,8.05
2018-09-04T20:08:10.173Z,8.05
2018-09-04T20:10:38.726Z,7.22
2018-09-04T20:13:07.227Z,6.85
2018-09-04T20:15:34.865Z,8.68
2018-09-04T20:18:02.365Z,8.30
2018-09-04T20:20:32.277Z,8.02
2018-09-04T20:23:00.846Z,9.90
2018-09-04T20:25:30.046Z,10.25
2018-09-04T20:27:57.324Z,9.77
2018-09-04T20:30:29.287Z,9.02
2018-09-04T20:32:57.767Z,9.93
2018-09-04T20:35:25.133Z,8.65
2018-09-04T20:37:52.576Z,9.73
2018-09-04T20:40:20.034Z,9.90
2018-09-04T20:42:47.491Z,9.48
2018-09-04T20:45:14.643Z,9.65
2018-09-04T20:47:41.904Z,9.50
2018-09-04T20:50:09.359Z,9.05
2018-09-04T20:52:37.125Z,9.52
2018-09-04T20:55:04.275Z,9.50
2018-09-04T20:57:31.184Z,9.35
2018-09-04T21:00:05.390Z,8.55
2018-09-04T21:02:39.201Z,9.27
2018-09-04T21:05:12.644Z,9.13
2018-09-04T21:07:41.940Z,8.80
2018-09-04T21:10:11.439Z,9.65
2018-09-04T21:12:40.715Z,10.07
2018-09-04T21:15:08.619Z,10.07
2018-09-04T21:17:51.726Z,9.05
2018-09-04T21:20:18.796Z,9.93
2018-09-04T21:22:46.043Z,9.55
2018-09-04T21:25:13.193Z,10.00
2018-09-04T21:27:40.344Z,11.07
2018-09-04T21:30:07.399Z,9.07
2018-09-04T21:32:34.954Z,9.90
2018-09-04T21:35:02.008Z,9.77
2018-09-04T21:37:30.180Z,9.18
2018-09-04T21:39:58.153Z,10.02
2018-09-04T21:42:25.361Z,9.88
2018-09-04T21:44:52.455Z,10.55
2018-09-04T21:47:19.500Z,9.90
2018-09-04T21:49:46.548Z,9.73
2018-09-04T21:52:14.008Z,9.25
2018-09-04T21:54:41.367Z,9.80
2018-09-04T21:57:08.411Z,9.25
2018-09-04T21:59:35.459Z,10.05
2018-09-04T22:02:02.917Z,9.73
2018-09-04T22:04:30.069Z,9.60
2018-09-04T22:06:58.619Z,10.18
2018-09-04T22:09:25.771Z,10.38
2018-09-04T22:11:52.853Z,10.18
2018-09-04T22:14:20.988Z,9.40
2018-09-04T22:16:48.184Z,10.75
2018-09-04T22:19:16.970Z,10.05
2018-09-04T22:21:45.222Z,10.30
2018-09-04T22:24:12.908Z,9.98
2018-09-04T22:26:40.169Z,9.30
2018-09-04T22:29:07.210Z,10.05
2018-09-04T22:31:34.361Z,9.27
2018-09-04T22:34:01.512Z,8.18
2018-09-04T22:36:28.665Z,8.02
2018-09-04T22:38:55.713Z,7.03
2018-09-04T22:41:22.766Z,7.07
2018-09-04T22:43:49.810Z,7.05
2018-09-04T22:46:16.859Z,6.30
2018-09-04T22:48:43.875Z,6.57
2018-09-04T22:51:29.697Z,6.75
2018-09-04T22:53:56.845Z,6.10
2018-09-04T22:56:23.895Z,6.75
2018-09-04T22:58:50.949Z,6.05
2018-09-04T23:01:17.992Z,6.57
2018-09-04T23:03:45.041Z,6.20
2018-09-04T23:06:12.095Z,6.00
2018-09-04T23:08:39.140Z,6.47
2018-09-04T23:11:06.187Z,7.03
2018-09-04T23:13:33.241Z,6.32
2018-09-04T23:16:00.285Z,6.43
2018-09-04T23:18:27.336Z,6.35
2018-09-04T23:20:54.388Z,6.70
2018-09-04T23:23:21.431Z,6.30
2018-09-04T23:25:48.480Z,6.12
2018-09-04T23:28:16.250Z,5.70
2018-09-04T23:30:43.298Z,5.47
2018-09-04T23:33:10.342Z,5.70
2018-09-04T23:35:38.220Z,5.20
2018-09-04T23:38:05.257Z,5.18
2018-09-04T23:40:32.306Z,5.93
2018-09-04T23:43:00.590Z,5.62
2018-09-04T23:45:27.632Z,5.50
2018-09-04T23:47:54.681Z,5.30
2018-09-04T23:50:22.244Z,6.20
2018-09-04T23:52:49.291Z,5.68
2018-09-04T23:55:16.307Z,5.85
2018-09-04T23:57:43.592Z,5.40
